sensor_id;sensor_type;location;lat;lon;timestamp;pressure;altitude;pressure_sealevel;temperature;humidity
37078;BME280;22989;55.998;37.212;2023-05-29T00:00:24;63935.97;;;-145.39;100.00
37078;BME280;22989;55.998;37.212;2023-05-29T00:02:50;63935.97;;;-145.39;100.00
37078;BME280;22989;55.998;37.212;2023-05-29T00:05:16;63935.97;;;-145.39;100.00
37078;BME280;22989;55.998;37.212;2023-05-29T00:07:42;63935.97;;;-145.39;100.00
37078;BME280;22989;55.998;37.212;2023-05-29T00:10:08;63935.97;;;-145.39;100.00
37078;BME280;22989;55.998;37.212;2023-05-29T00:12:34;63935.97;;;-145.39;100.00
37078;BME280;22989;55.998;37.212;2023-05-29T00:14:59;63935.97;;;-145.39;100.00
37078;BME280;22989;55.998;37.212;2023-05-29T00:17:25;63935.97;;;-145.39;100.00
37078;BME280;22989;55.998;37.212;2023-05-29T00:19:50;63935.97;;;-145.39;100.00
37078;BME280;22989;55.998;37.212;2023-05-29T00:22:16;63935.97;;;-145.39;100.00
37078;BME280;22989;55.998;37.212;2023-05-29T00:24:41;63935.97;;;-145.39;100.00
37078;BME280;22989;55.998;37.212;2023-05-29T00:27:07;63935.97;;;-145.39;100.00
37078;BME280;22989;55.998;37.212;2023-05-29T00:29:34;63935.97;;;-145.39;100.00
37078;BME280;22989;55.998;37.212;2023-05-29T00:32:01;63935.97;;;-145.39;100.00
37078;BME280;22989;55.998;37.212;2023-05-29T00:34:27;63935.97;;;-145.39;100.00
37078;BME280;22989;55.998;37.212;2023-05-29T00:36:53;63935.97;;;-145.39;100.00
37078;BME280;22989;55.998;37.212;2023-05-29T00:39:21;63935.97;;;-145.39;100.00
37078;BME280;22989;55.998;37.212;2023-05-29T00:41:47;63935.97;;;-145.39;100.00
37078;BME280;22989;55.998;37.212;2023-05-29T00:44:19;63935.97;;;-145.39;100.00
37078;BME280;22989;55.998;37.212;2023-05-29T00:46:45;63935.97;;;-145.39;100.00
37078;BME280;22989;55.998;37.212;2023-05-29T00:49:10;63935.97;;;-145.39;100.00
37078;BME280;22989;55.998;37.212;2023-05-29T00:51:36;63935.97;;;-145.39;100.00
37078;BME280;22989;55.998;37.212;2023-05-29T00:54:02;63935.97;;;-145.39;100.00
37078;BME280;22989;55.998;37.212;2023-05-29T00:56:29;63935.97;;;-145.39;100.00
37078;BME280;22989;55.998;37.212;2023-05-29T00:58:54;63935.97;;;-145.39;100.00
37078;BME280;22989;55.998;37.212;2023-05-29T01:01:20;63935.97;;;-145.39;100.00
37078;BME280;22989;55.998;37.212;2023-05-29T01:03:46;63935.97;;;-145.39;100.00
37078;BME280;22989;55.998;37.212;2023-05-29T01:06:14;63935.97;;;-145.39;100.00
37078;BME280;22989;55.998;37.212;2023-05-29T01:08:39;63935.97;;;-145.39;100.00
37078;BME280;22989;55.998;37.212;2023-05-29T01:11:08;63935.97;;;-145.39;100.00
37078;BME280;22989;55.998;37.212;2023-05-29T01:13:37;63935.97;;;-145.39;100.00
37078;BME280;22989;55.998;37.212;2023-05-29T01:16:07;63935.97;;;-145.39;100.00
37078;BME280;22989;55.998;37.212;2023-05-29T01:18:36;63935.97;;;-145.39;100.00
37078;BME280;22989;55.998;37.212;2023-05-29T01:28:55;63935.97;;;-145.39;100.00
37078;BME280;22989;55.998;37.212;2023-05-29T01:31:22;63935.97;;;-145.39;100.00
37078;BME280;22989;55.998;37.212;2023-05-29T01:33:57;63935.97;;;-145.39;100.00
37078;BME280;22989;55.998;37.212;2023-05-29T01:36:24;63935.97;;;-145.39;100.00
37078;BME280;22989;55.998;37.212;2023-05-29T01:38:53;63935.97;;;-145.39;100.00
37078;BME280;22989;55.998;37.212;2023-05-29T01:41:19;63935.97;;;-145.39;100.00
37078;BME280;22989;55.998;37.212;2023-05-29T01:43:46;63935.97;;;-145.39;100.00
37078;BME280;22989;55.998;37.212;2023-05-29T01:46:12;63935.97;;;-145.39;100.00
37078;BME280;22989;55.998;37.212;2023-05-29T01:48:43;63935.97;;;-145.39;100.00
37078;BME280;22989;55.998;37.212;2023-05-29T01:51:09;63935.97;;;-145.39;100.00
37078;BME280;22989;55.998;37.212;2023-05-29T01:53:36;63935.97;;;-145.39;100.00
37078;BME280;22989;55.998;37.212;2023-05-29T01:56:02;63935.97;;;-145.39;100.00
37078;BME280;22989;55.998;37.212;2023-05-29T01:58:28;63935.97;;;-145.39;100.00
37078;BME280;22989;55.998;37.212;2023-05-29T02:00:54;63935.97;;;-145.39;100.00
37078;BME280;22989;55.998;37.212;2023-05-29T02:03:20;63935.97;;;-145.39;100.00
37078;BME280;22989;55.998;37.212;2023-05-29T02:05:46;63935.97;;;-145.39;100.00
37078;BME280;22989;55.998;37.212;2023-05-29T02:08:12;63935.97;;;-145.39;100.00
37078;BME280;22989;55.998;37.212;2023-05-29T02:10:37;63935.97;;;-145.39;100.00
37078;BME280;22989;55.998;37.212;2023-05-29T02:13:02;63935.97;;;-145.39;100.00
37078;BME280;22989;55.998;37.212;2023-05-29T02:15:28;63935.97;;;-145.39;100.00
37078;BME280;22989;55.998;37.212;2023-05-29T02:17:54;63935.97;;;-145.39;100.00
37078;BME280;22989;55.998;37.212;2023-05-29T02:20:20;63935.97;;;-145.39;100.00
37078;BME280;22989;55.998;37.212;2023-05-29T02:22:45;63935.97;;;-145.39;100.00
37078;BME280;22989;55.998;37.212;2023-05-29T02:25:11;63935.97;;;-145.39;100.00
37078;BME280;22989;55.998;37.212;2023-05-29T02:27:36;63935.97;;;-145.39;100.00
37078;BME280;22989;55.998;37.212;2023-05-29T02:30:02;63935.97;;;-145.39;100.00
37078;BME280;22989;55.998;37.212;2023-05-29T02:32:27;63935.97;;;-145.39;100.00
37078;BME280;22989;55.998;37.212;2023-05-29T02:34:57;63935.97;;;-145.39;100.00
37078;BME280;22989;55.998;37.212;2023-05-29T02:37:22;63935.97;;;-145.39;100.00
37078;BME280;22989;55.998;37.212;2023-05-29T02:39:50;63935.97;;;-145.39;100.00
37078;BME280;22989;55.998;37.212;2023-05-29T02:42:16;63935.97;;;-145.39;100.00
37078;BME280;22989;55.998;37.212;2023-05-29T02:44:41;63935.97;;;-145.39;100.00
37078;BME280;22989;55.998;37.212;2023-05-29T02:47:07;63935.97;;;-145.39;100.00
37078;BME280;22989;55.998;37.212;2023-05-29T02:49:34;63935.97;;;-145.39;100.00
37078;BME280;22989;55.998;37.212;2023-05-29T02:51:59;63935.97;;;-145.39;100.00
37078;BME280;22989;55.998;37.212;2023-05-29T02:54:25;63935.97;;;-145.39;100.00
37078;BME280;22989;55.998;37.212;2023-05-29T02:56:51;63935.97;;;-145.39;100.00
37078;BME280;22989;55.998;37.212;2023-05-29T02:59:16;63935.97;;;-145.39;100.00
37078;BME280;22989;55.998;37.212;2023-05-29T03:01:42;63935.97;;;-145.39;100.00
37078;BME280;22989;55.998;37.212;2023-05-29T03:04:09;63935.97;;;-145.39;100.00
37078;BME280;22989;55.998;37.212;2023-05-29T03:06:35;63935.97;;;-145.39;100.00
37078;BME280;22989;55.998;37.212;2023-05-29T03:09:02;63935.97;;;-145.39;100.00
37078;BME280;22989;55.998;37.212;2023-05-29T03:11:29;63935.97;;;-145.39;100.00
37078;BME280;22989;55.998;37.212;2023-05-29T03:13:56;63935.97;;;-145.39;100.00
37078;BME280;22989;55.998;37.212;2023-05-29T03:16:21;63935.97;;;-145.39;100.00
37078;BME280;22989;55.998;37.212;2023-05-29T03:18:46;63935.97;;;-145.39;100.00
37078;BME280;22989;55.998;37.212;2023-05-29T03:21:15;63935.97;;;-145.39;100.00
37078;BME280;22989;55.998;37.212;2023-05-29T03:23:41;63935.97;;;-145.39;100.00
37078;BME280;22989;55.998;37.212;2023-05-29T03:26:06;63935.97;;;-145.39;100.00
37078;BME280;22989;55.998;37.212;2023-05-29T03:28:33;63935.97;;;-145.39;100.00
37078;BME280;22989;55.998;37.212;2023-05-29T03:31:02;63935.97;;;-145.39;100.00
37078;BME280;22989;55.998;37.212;2023-05-29T03:33:27;63935.97;;;-145.39;100.00
37078;BME280;22989;55.998;37.212;2023-05-29T03:36:01;63935.97;;;-145.39;100.00
37078;BME280;22989;55.998;37.212;2023-05-29T03:38:27;63935.97;;;-145.39;100.00
37078;BME280;22989;55.998;37.212;2023-05-29T03:40:56;63935.97;;;-145.39;100.00
37078;BME280;22989;55.998;37.212;2023-05-29T03:43:22;63935.97;;;-145.39;100.00
37078;BME280;22989;55.998;37.212;2023-05-29T03:45:47;63935.97;;;-145.39;100.00
37078;BME280;22989;55.998;37.212;2023-05-29T03:48:13;63935.97;;;-145.39;100.00
37078;BME280;22989;55.998;37.212;2023-05-29T03:50:40;63935.97;;;-145.39;100.00
37078;BME280;22989;55.998;37.212;2023-05-29T03:53:07;63935.97;;;-145.39;100.00
37078;BME280;22989;55.998;37.212;2023-05-29T03:55:32;63935.97;;;-145.39;100.00
37078;BME280;22989;55.998;37.212;2023-05-29T03:57:58;63935.97;;;-145.39;100.00
37078;BME280;22989;55.998;37.212;2023-05-29T04:00:25;63935.97;;;-145.39;100.00
37078;BME280;22989;55.998;37.212;2023-05-29T04:02:51;63935.97;;;-145.39;100.00
37078;BME280;22989;55.998;37.212;2023-05-29T04:05:18;63935.97;;;-145.39;100.00
37078;BME280;22989;55.998;37.212;2023-05-29T04:07:44;63935.97;;;-145.39;100.00
37078;BME280;22989;55.998;37.212;2023-05-29T04:10:10;63935.97;;;-145.39;100.00
37078;BME280;22989;55.998;37.212;2023-05-29T04:12:36;63935.97;;;-145.39;100.00
37078;BME280;22989;55.998;37.212;2023-05-29T04:15:01;63935.97;;;-145.39;100.00
37078;BME280;22989;55.998;37.212;2023-05-29T04:17:27;63935.97;;;-145.39;100.00
37078;BME280;22989;55.998;37.212;2023-05-29T04:19:54;63935.97;;;-145.39;100.00
37078;BME280;22989;55.998;37.212;2023-05-29T04:22:20;63935.97;;;-145.39;100.00
37078;BME280;22989;55.998;37.212;2023-05-29T04:24:46;63935.97;;;-145.39;100.00
37078;BME280;22989;55.998;37.212;2023-05-29T04:27:12;63935.97;;;-145.39;100.00
37078;BME280;22989;55.998;37.212;2023-05-29T04:29:39;63935.97;;;-145.39;100.00
37078;BME280;22989;55.998;37.212;2023-05-29T04:32:06;63935.97;;;-145.39;100.00
37078;BME280;22989;55.998;37.212;2023-05-29T04:34:31;63935.97;;;-145.39;100.00
37078;BME280;22989;55.998;37.212;2023-05-29T04:36:57;63935.97;;;-145.39;100.00
37078;BME280;22989;55.998;37.212;2023-05-29T04:39:23;63935.97;;;-145.39;100.00
37078;BME280;22989;55.998;37.212;2023-05-29T04:41:51;63935.97;;;-145.39;100.00
37078;BME280;22989;55.998;37.212;2023-05-29T04:44:19;63935.97;;;-145.39;100.00
37078;BME280;22989;55.998;37.212;2023-05-29T04:46:48;63935.97;;;-145.39;100.00
37078;BME280;22989;55.998;37.212;2023-05-29T04:49:17;63935.97;;;-145.39;100.00
37078;BME280;22989;55.998;37.212;2023-05-29T04:51:43;63935.97;;;-145.39;100.00
37078;BME280;22989;55.998;37.212;2023-05-29T04:54:10;63935.97;;;-145.39;100.00
37078;BME280;22989;55.998;37.212;2023-05-29T04:56:37;63935.97;;;-145.39;100.00
37078;BME280;22989;55.998;37.212;2023-05-29T04:59:06;63935.97;;;-145.39;100.00
37078;BME280;22989;55.998;37.212;2023-05-29T05:01:32;63935.97;;;-145.39;100.00
37078;BME280;22989;55.998;37.212;2023-05-29T05:03:59;63935.97;;;-145.39;100.00
37078;BME280;22989;55.998;37.212;2023-05-29T05:06:25;116983.66;;;-145.39;47.88
37078;BME280;22989;55.998;37.212;2023-05-29T05:08:51;116983.66;;;-145.39;17.03
37078;BME280;22989;55.998;37.212;2023-05-29T05:11:18;116983.66;;;-145.39;17.10
37078;BME280;22989;55.998;37.212;2023-05-29T05:13:44;116983.66;;;-145.39;17.06
37078;BME280;22989;55.998;37.212;2023-05-29T05:16:10;116983.66;;;-145.39;17.35
37078;BME280;22989;55.998;37.212;2023-05-29T05:18:38;116983.66;;;-145.39;17.24
37078;BME280;22989;55.998;37.212;2023-05-29T05:21:05;116983.66;;;-145.39;17.10
37078;BME280;22989;55.998;37.212;2023-05-29T05:23:33;116983.66;;;-145.39;17.12
37078;BME280;22989;55.998;37.212;2023-05-29T05:25:59;116983.66;;;-145.39;17.29
37078;BME280;22989;55.998;37.212;2023-05-29T05:28:25;116983.66;;;-145.39;16.87
37078;BME280;22989;55.998;37.212;2023-05-29T05:30:51;116983.66;;;-145.39;17.15
37078;BME280;22989;55.998;37.212;2023-05-29T05:33:17;116983.66;;;-145.39;16.72
37078;BME280;22989;55.998;37.212;2023-05-29T05:35:42;116983.66;;;-145.39;16.71
37078;BME280;22989;55.998;37.212;2023-05-29T05:38:08;116983.66;;;-145.39;17.08
37078;BME280;22989;55.998;37.212;2023-05-29T05:40:34;116983.66;;;-145.39;16.85
37078;BME280;22989;55.998;37.212;2023-05-29T05:43:10;116983.66;;;-145.39;16.58
37078;BME280;22989;55.998;37.212;2023-05-29T05:46:04;116983.66;;;-145.39;16.50
37078;BME280;22989;55.998;37.212;2023-05-29T05:48:31;116983.66;;;-145.39;16.24
37078;BME280;22989;55.998;37.212;2023-05-29T05:50:57;116983.66;;;-145.39;16.04
37078;BME280;22989;55.998;37.212;2023-05-29T05:53:22;116983.66;;;-145.39;16.01
37078;BME280;22989;55.998;37.212;2023-05-29T05:55:48;116983.66;;;-145.39;15.98
37078;BME280;22989;55.998;37.212;2023-05-29T05:58:14;116983.66;;;-145.39;16.20
37078;BME280;22989;55.998;37.212;2023-05-29T06:00:41;116983.66;;;-145.39;15.74
37078;BME280;22989;55.998;37.212;2023-05-29T06:03:09;116983.66;;;-145.39;16.01
37078;BME280;22989;55.998;37.212;2023-05-29T06:06:03;116983.66;;;-145.39;15.77
37078;BME280;22989;55.998;37.212;2023-05-29T06:08:29;116983.66;;;-145.39;16.62
37078;BME280;22989;55.998;37.212;2023-05-29T06:10:56;116983.66;;;-145.39;16.01
37078;BME280;22989;55.998;37.212;2023-05-29T06:13:21;116983.66;;;-145.39;16.21
37078;BME280;22989;55.998;37.212;2023-05-29T06:15:52;116983.66;;;-145.39;15.82
37078;BME280;22989;55.998;37.212;2023-05-29T06:18:18;116983.66;;;-145.39;15.99
37078;BME280;22989;55.998;37.212;2023-05-29T06:20:43;116983.66;;;-145.39;15.68
37078;BME280;22989;55.998;37.212;2023-05-29T06:23:09;116983.66;;;-145.39;15.81
37078;BME280;22989;55.998;37.212;2023-05-29T06:25:36;116983.66;;;-145.39;15.78
37078;BME280;22989;55.998;37.212;2023-05-29T06:28:02;116983.66;;;-145.39;16.09
37078;BME280;22989;55.998;37.212;2023-05-29T06:30:28;116983.66;;;-145.39;15.42
37078;BME280;22989;55.998;37.212;2023-05-29T06:32:54;116983.66;;;-145.39;15.48
37078;BME280;22989;55.998;37.212;2023-05-29T06:35:25;116983.66;;;-145.39;15.46
37078;BME280;22989;55.998;37.212;2023-05-29T06:37:50;116983.66;;;-145.39;15.43
37078;BME280;22989;55.998;37.212;2023-05-29T06:40:16;116983.66;;;-145.39;15.87
37078;BME280;22989;55.998;37.212;2023-05-29T06:42:41;116983.66;;;-145.39;15.76
37078;BME280;22989;55.998;37.212;2023-05-29T06:45:13;116983.66;;;-145.39;15.45
37078;BME280;22989;55.998;37.212;2023-05-29T06:47:39;116983.66;;;-145.39;15.53
37078;BME280;22989;55.998;37.212;2023-05-29T06:50:06;116983.66;;;-145.39;15.96
37078;BME280;22989;55.998;37.212;2023-05-29T06:52:31;116983.66;;;-145.39;15.51
37078;BME280;22989;55.998;37.212;2023-05-29T06:55:23;116983.66;;;-145.39;15.73
37078;BME280;22989;55.998;37.212;2023-05-29T06:57:48;116983.66;;;-145.39;15.66
37078;BME280;22989;55.998;37.212;2023-05-29T07:00:14;116983.66;;;-145.39;15.49
37078;BME280;22989;55.998;37.212;2023-05-29T07:02:47;116983.66;;;-145.39;16.21
37078;BME280;22989;55.998;37.212;2023-05-29T07:05:13;116983.66;;;-145.39;15.74
37078;BME280;22989;55.998;37.212;2023-05-29T07:07:39;116983.66;;;-145.39;15.97
37078;BME280;22989;55.998;37.212;2023-05-29T07:10:06;116983.66;;;-145.39;15.63
37078;BME280;22989;55.998;37.212;2023-05-29T07:12:32;116983.66;;;-145.39;15.96
37078;BME280;22989;55.998;37.212;2023-05-29T07:14:58;116983.66;;;-145.39;15.60
37078;BME280;22989;55.998;37.212;2023-05-29T07:17:23;116983.66;;;-145.39;16.03
37078;BME280;22989;55.998;37.212;2023-05-29T07:20:00;116983.66;;;-145.39;16.29
37078;BME280;22989;55.998;37.212;2023-05-29T07:22:26;116983.66;;;-145.39;16.00
37078;BME280;22989;55.998;37.212;2023-05-29T07:24:51;116983.66;;;-145.39;15.80
37078;BME280;22989;55.998;37.212;2023-05-29T07:27:17;116983.66;;;-145.39;15.48
37078;BME280;22989;55.998;37.212;2023-05-29T07:29:43;116983.66;;;-145.39;16.03
37078;BME280;22989;55.998;37.212;2023-05-29T07:32:08;116983.66;;;-145.39;16.18
37078;BME280;22989;55.998;37.212;2023-05-29T07:34:35;116983.66;;;-145.39;16.12
37078;BME280;22989;55.998;37.212;2023-05-29T07:37:02;116983.66;;;-145.39;16.37
37078;BME280;22989;55.998;37.212;2023-05-29T07:39:30;116983.66;;;-145.39;16.37
37078;BME280;22989;55.998;37.212;2023-05-29T07:41:59;116983.66;;;-145.39;16.57
37078;BME280;22989;55.998;37.212;2023-05-29T07:44:26;116983.66;;;-145.39;16.70
37078;BME280;22989;55.998;37.212;2023-05-29T07:46:52;116983.66;;;-145.39;16.82
37078;BME280;22989;55.998;37.212;2023-05-29T07:49:31;116983.66;;;-145.39;17.10
37078;BME280;22989;55.998;37.212;2023-05-29T07:51:57;116983.66;;;-145.39;16.91
37078;BME280;22989;55.998;37.212;2023-05-29T07:54:23;116983.66;;;-145.39;17.40
37078;BME280;22989;55.998;37.212;2023-05-29T07:56:48;116983.66;;;-145.39;17.79
37078;BME280;22989;55.998;37.212;2023-05-29T07:59:15;116983.66;;;-145.39;18.07
37078;BME280;22989;55.998;37.212;2023-05-29T08:01:42;116983.66;;;-145.39;18.47
37078;BME280;22989;55.998;37.212;2023-05-29T08:04:19;116983.66;;;-145.39;18.97
37078;BME280;22989;55.998;37.212;2023-05-29T08:06:44;116983.66;;;-145.39;19.33
37078;BME280;22989;55.998;37.212;2023-05-29T08:09:10;116983.66;;;-145.39;19.67
37078;BME280;22989;55.998;37.212;2023-05-29T08:11:37;116983.66;;;-145.39;20.49
37078;BME280;22989;55.998;37.212;2023-05-29T08:14:03;116983.66;;;-145.39;20.74
37078;BME280;22989;55.998;37.212;2023-05-29T08:16:30;116983.66;;;-145.39;20.86
37078;BME280;22989;55.998;37.212;2023-05-29T08:18:55;116983.66;;;-145.39;20.73
37078;BME280;22989;55.998;37.212;2023-05-29T08:21:21;116983.66;;;-145.39;20.78
37078;BME280;22989;55.998;37.212;2023-05-29T08:23:46;116983.66;;;-145.39;21.45
37078;BME280;22989;55.998;37.212;2023-05-29T08:26:12;116983.66;;;-145.39;21.51
37078;BME280;22989;55.998;37.212;2023-05-29T08:28:38;116983.66;;;-145.39;21.13
37078;BME280;22989;55.998;37.212;2023-05-29T08:31:04;116983.66;;;-145.39;21.50
37078;BME280;22989;55.998;37.212;2023-05-29T08:33:29;116983.66;;;-145.39;21.95
37078;BME280;22989;55.998;37.212;2023-05-29T08:35:56;116983.66;;;-145.39;22.18
37078;BME280;22989;55.998;37.212;2023-05-29T08:38:22;116983.66;;;-145.39;22.33
37078;BME280;22989;55.998;37.212;2023-05-29T08:40:50;116983.66;;;-145.39;22.53
37078;BME280;22989;55.998;37.212;2023-05-29T08:43:18;116983.66;;;-145.39;22.65
37078;BME280;22989;55.998;37.212;2023-05-29T08:45:46;116983.66;;;-145.39;22.43
37078;BME280;22989;55.998;37.212;2023-05-29T08:48:12;116983.66;;;-145.39;22.44
37078;BME280;22989;55.998;37.212;2023-05-29T08:50:43;116983.66;;;-145.39;22.39
37078;BME280;22989;55.998;37.212;2023-05-29T08:53:12;116983.66;;;-145.39;22.62
37078;BME280;22989;55.998;37.212;2023-05-29T08:55:37;116983.66;;;-145.39;22.66
37078;BME280;22989;55.998;37.212;2023-05-29T08:58:03;116983.66;;;-145.39;23.04
37078;BME280;22989;55.998;37.212;2023-05-29T09:00:29;116983.66;;;-145.39;22.88
37078;BME280;22989;55.998;37.212;2023-05-29T09:02:55;116983.66;;;-145.39;22.90
37078;BME280;22989;55.998;37.212;2023-05-29T09:05:21;116983.66;;;-145.39;22.97
37078;BME280;22989;55.998;37.212;2023-05-29T09:07:46;116983.66;;;-145.39;23.01
37078;BME280;22989;55.998;37.212;2023-05-29T09:10:14;116983.66;;;-145.39;23.13
37078;BME280;22989;55.998;37.212;2023-05-29T09:12:40;116983.66;;;-145.39;23.30
37078;BME280;22989;55.998;37.212;2023-05-29T09:15:27;116983.66;;;-145.39;23.30
37078;BME280;22989;55.998;37.212;2023-05-29T09:17:52;116983.66;;;-145.39;23.41
37078;BME280;22989;55.998;37.212;2023-05-29T09:20:19;116983.66;;;-145.39;23.31
37078;BME280;22989;55.998;37.212;2023-05-29T09:22:58;116983.66;;;-145.39;23.41
37078;BME280;22989;55.998;37.212;2023-05-29T09:25:24;116983.66;;;-145.39;23.53
37078;BME280;22989;55.998;37.212;2023-05-29T09:27:51;116983.66;;;-145.39;23.50
37078;BME280;22989;55.998;37.212;2023-05-29T09:30:33;116983.66;;;-145.39;23.44
37078;BME280;22989;55.998;37.212;2023-05-29T09:32:59;116983.66;;;-145.39;23.47
37078;BME280;22989;55.998;37.212;2023-05-29T09:35:34;116983.66;;;-145.39;23.60
37078;BME280;22989;55.998;37.212;2023-05-29T09:38:00;116983.66;;;-145.39;23.69
37078;BME280;22989;55.998;37.212;2023-05-29T09:40:29;116983.66;;;-145.39;23.94
37078;BME280;22989;55.998;37.212;2023-05-29T09:42:54;116983.66;;;-145.39;23.89
37078;BME280;22989;55.998;37.212;2023-05-29T09:45:20;116983.66;;;-145.39;24.01
37078;BME280;22989;55.998;37.212;2023-05-29T09:47:46;116983.66;;;-145.39;24.07
37078;BME280;22989;55.998;37.212;2023-05-29T09:50:18;116983.66;;;-145.39;24.02
37078;BME280;22989;55.998;37.212;2023-05-29T09:52:47;116983.66;;;-145.39;24.03
37078;BME280;22989;55.998;37.212;2023-05-29T09:55:15;116983.66;;;-145.39;24.17
37078;BME280;22989;55.998;37.212;2023-05-29T09:57:44;116983.66;;;-145.39;24.37
37078;BME280;22989;55.998;37.212;2023-05-29T10:00:11;116983.66;;;-145.39;24.27
37078;BME280;22989;55.998;37.212;2023-05-29T10:02:38;116983.66;;;-145.39;24.37
37078;BME280;22989;55.998;37.212;2023-05-29T10:05:08;116983.66;;;-145.39;24.42
37078;BME280;22989;55.998;37.212;2023-05-29T10:07:35;116983.66;;;-145.39;24.37
37078;BME280;22989;55.998;37.212;2023-05-29T10:10:03;116983.66;;;-145.39;24.37
37078;BME280;22989;55.998;37.212;2023-05-29T10:12:34;116983.66;;;-145.39;24.42
37078;BME280;22989;55.998;37.212;2023-05-29T10:15:02;116983.66;;;-145.39;24.43
37078;BME280;22989;55.998;37.212;2023-05-29T10:17:32;116983.66;;;-145.39;24.48
37078;BME280;22989;55.998;37.212;2023-05-29T10:19:58;116983.66;;;-145.39;24.39
37078;BME280;22989;55.998;37.212;2023-05-29T10:22:26;116983.66;;;-145.39;24.43
37078;BME280;22989;55.998;37.212;2023-05-29T10:24:52;116983.66;;;-145.39;24.36
37078;BME280;22989;55.998;37.212;2023-05-29T10:27:18;116983.66;;;-145.39;24.36
37078;BME280;22989;55.998;37.212;2023-05-29T10:32:29;116983.66;;;-145.39;24.39
37078;BME280;22989;55.998;37.212;2023-05-29T10:37:37;116983.66;;;-145.39;24.13
37078;BME280;22989;55.998;37.212;2023-05-29T10:40:06;116983.66;;;-145.39;24.14
37078;BME280;22989;55.998;37.212;2023-05-29T10:45:04;116983.66;;;-145.39;24.09
37078;BME280;22989;55.998;37.212;2023-05-29T10:47:29;116983.66;;;-145.39;24.01
37078;BME280;22989;55.998;37.212;2023-05-29T10:49:59;116983.66;;;-145.39;23.99
37078;BME280;22989;55.998;37.212;2023-05-29T10:52:24;116983.66;;;-145.39;23.92
37078;BME280;22989;55.998;37.212;2023-05-29T10:54:51;116983.66;;;-145.39;23.89
37078;BME280;22989;55.998;37.212;2023-05-29T10:57:18;116983.66;;;-145.39;24.00
37078;BME280;22989;55.998;37.212;2023-05-29T10:59:45;116983.66;;;-145.39;23.60
37078;BME280;22989;55.998;37.212;2023-05-29T11:02:11;116983.66;;;-145.39;23.91
37078;BME280;22989;55.998;37.212;2023-05-29T11:04:36;116983.66;;;-145.39;23.92
37078;BME280;22989;55.998;37.212;2023-05-29T11:07:02;116983.66;;;-145.39;24.14
37078;BME280;22989;55.998;37.212;2023-05-29T11:09:38;116983.66;;;-145.39;24.16
37078;BME280;22989;55.998;37.212;2023-05-29T11:12:15;116983.66;;;-145.39;24.05
37078;BME280;22989;55.998;37.212;2023-05-29T11:15:08;116983.66;;;-145.39;24.25
37078;BME280;22989;55.998;37.212;2023-05-29T11:20:00;116983.66;;;-145.39;24.27
37078;BME280;22989;55.998;37.212;2023-05-29T11:22:31;116983.66;;;-145.39;24.27
37078;BME280;22989;55.998;37.212;2023-05-29T11:24:58;116983.66;;;-145.39;24.18
37078;BME280;22989;55.998;37.212;2023-05-29T11:27:24;116983.66;;;-145.39;24.19
37078;BME280;22989;55.998;37.212;2023-05-29T11:29:50;116983.66;;;-145.39;24.40
37078;BME280;22989;55.998;37.212;2023-05-29T11:32:19;116983.66;;;-145.39;24.26
37078;BME280;22989;55.998;37.212;2023-05-29T11:34:45;116983.66;;;-145.39;24.23
37078;BME280;22989;55.998;37.212;2023-05-29T11:37:12;116983.66;;;-145.39;24.24
37078;BME280;22989;55.998;37.212;2023-05-29T11:39:38;116983.66;;;-145.39;24.21
37078;BME280;22989;55.998;37.212;2023-05-29T11:42:03;116983.66;;;-145.39;24.26
37078;BME280;22989;55.998;37.212;2023-05-29T11:44:30;116983.66;;;-145.39;24.25
37078;BME280;22989;55.998;37.212;2023-05-29T11:47:00;116983.66;;;-145.39;24.25
37078;BME280;22989;55.998;37.212;2023-05-29T11:49:27;116983.66;;;-145.39;24.25
37078;BME280;22989;55.998;37.212;2023-05-29T11:51:53;116983.66;;;-145.39;24.27
37078;BME280;22989;55.998;37.212;2023-05-29T11:54:19;116983.66;;;-145.39;24.23
37078;BME280;22989;55.998;37.212;2023-05-29T11:56:45;116983.66;;;-145.39;24.24
37078;BME280;22989;55.998;37.212;2023-05-29T11:59:12;116983.66;;;-145.39;24.24
37078;BME280;22989;55.998;37.212;2023-05-29T12:01:38;116983.66;;;-145.39;24.34
37078;BME280;22989;55.998;37.212;2023-05-29T12:04:13;116983.66;;;-145.39;24.26
37078;BME280;22989;55.998;37.212;2023-05-29T12:06:38;116983.66;;;-145.39;24.37
37078;BME280;22989;55.998;37.212;2023-05-29T12:09:04;116983.66;;;-145.39;24.32
37078;BME280;22989;55.998;37.212;2023-05-29T12:11:30;116983.66;;;-145.39;24.38
37078;BME280;22989;55.998;37.212;2023-05-29T12:13:56;116983.66;;;-145.39;24.33
37078;BME280;22989;55.998;37.212;2023-05-29T12:16:22;116983.66;;;-145.39;24.35
37078;BME280;22989;55.998;37.212;2023-05-29T12:18:47;116983.66;;;-145.39;24.37
37078;BME280;22989;55.998;37.212;2023-05-29T12:21:13;116983.66;;;-145.39;24.46
37078;BME280;22989;55.998;37.212;2023-05-29T12:23:38;116983.66;;;-145.39;24.44
37078;BME280;22989;55.998;37.212;2023-05-29T12:26:04;116983.66;;;-145.39;24.52
37078;BME280;22989;55.998;37.212;2023-05-29T12:28:30;116983.66;;;-145.39;24.40
37078;BME280;22989;55.998;37.212;2023-05-29T12:30:59;116983.66;;;-145.39;24.41
37078;BME280;22989;55.998;37.212;2023-05-29T12:33:31;116983.66;;;-145.39;24.52
37078;BME280;22989;55.998;37.212;2023-05-29T12:36:06;116983.66;;;-145.39;24.47
37078;BME280;22989;55.998;37.212;2023-05-29T12:38:33;116983.66;;;-145.39;24.56